sensor_id;sensor_type;location;lat;lon;timestamp;pressure;altitude;pressure_sealevel;temperature;humidity
21828;BME280;11076;47.942;11.804;2023-02-17T00:06:14;95181.88;;;6.82;55.06
21828;BME280;11076;47.942;11.804;2023-02-17T00:11:17;95179.22;;;6.82;54.65
21828;BME280;11076;47.942;11.804;2023-02-17T00:16:24;95177.75;;;6.80;55.39
21828;BME280;11076;47.942;11.804;2023-02-17T00:21:29;95176.97;;;6.94;54.41
21828;BME280;11076;47.942;11.804;2023-02-17T00:26:31;95182.00;;;6.89;54.66
21828;BME280;11076;47.942;11.804;2023-02-17T00:31:34;95184.50;;;6.90;54.89
21828;BME280;11076;47.942;11.804;2023-02-17T00:36:36;95178.50;;;6.88;54.67
21828;BME280;11076;47.942;11.804;2023-02-17T00:41:38;95182.50;;;6.92;54.38
21828;BME280;11076;47.942;11.804;2023-02-17T00:46:41;95181.31;;;6.95;54.34
21828;BME280;11076;47.942;11.804;2023-02-17T00:51:44;95176.41;;;7.07;53.03
21828;BME280;11076;47.942;11.804;2023-02-17T00:56:46;95171.72;;;7.09;52.98
21828;BME280;11076;47.942;11.804;2023-02-17T01:01:49;95174.56;;;7.07;53.21
21828;BME280;11076;47.942;11.804;2023-02-17T01:06:51;95172.00;;;7.14;52.92
21828;BME280;11076;47.942;11.804;2023-02-17T01:11:53;95165.22;;;7.11;52.61
21828;BME280;11076;47.942;11.804;2023-02-17T01:16:56;95164.75;;;7.08;52.58
21828;BME280;11076;47.942;11.804;2023-02-17T01:21:58;95154.97;;;7.08;52.45
21828;BME280;11076;47.942;11.804;2023-02-17T01:27:01;95151.09;;;7.11;52.48
21828;BME280;11076;47.942;11.804;2023-02-17T01:32:03;95152.94;;;7.10;52.44
21828;BME280;11076;47.942;11.804;2023-02-17T01:37:06;95148.22;;;6.97;52.61
21828;BME280;11076;47.942;11.804;2023-02-17T01:42:17;95145.72;;;6.96;52.54
21828;BME280;11076;47.942;11.804;2023-02-17T01:47:22;95141.91;;;6.99;51.74
21828;BME280;11076;47.942;11.804;2023-02-17T01:52:25;95139.31;;;6.90;51.76
21828;BME280;11076;47.942;11.804;2023-02-17T01:57:30;95138.88;;;7.02;51.20
21828;BME280;11076;47.942;11.804;2023-02-17T02:02:34;95137.34;;;7.07;51.03
21828;BME280;11076;47.942;11.804;2023-02-17T02:07:39;95137.09;;;7.17;50.89
21828;BME280;11076;47.942;11.804;2023-02-17T02:12:43;95128.22;;;7.25;50.45
21828;BME280;11076;47.942;11.804;2023-02-17T02:18:04;95130.06;;;7.24;49.86
21828;BME280;11076;47.942;11.804;2023-02-17T02:34:36;95137.50;;;7.44;49.37
21828;BME280;11076;47.942;11.804;2023-02-17T02:39:45;95132.09;;;7.52;49.46
21828;BME280;11076;47.942;11.804;2023-02-17T02:44:49;95132.75;;;7.54;49.16
21828;BME280;11076;47.942;11.804;2023-02-17T02:49:52;95132.75;;;7.54;49.44
21828;BME280;11076;47.942;11.804;2023-02-17T02:55:07;95127.06;;;7.57;49.77
21828;BME280;11076;47.942;11.804;2023-02-17T03:00:24;95129.56;;;7.59;49.72
21828;BME280;11076;47.942;11.804;2023-02-17T03:05:39;95123.03;;;7.61;50.31
21828;BME280;11076;47.942;11.804;2023-02-17T03:10:52;95124.41;;;7.57;50.42
21828;BME280;11076;47.942;11.804;2023-02-17T03:15:55;95120.47;;;7.68;50.35
21828;BME280;11076;47.942;11.804;2023-02-17T03:21:02;95116.50;;;7.64;50.53
21828;BME280;11076;47.942;11.804;2023-02-17T03:26:05;95119.38;;;7.62;50.98
21828;BME280;11076;47.942;11.804;2023-02-17T03:31:08;95126.81;;;7.67;50.76
21828;BME280;11076;47.942;11.804;2023-02-17T03:36:11;95124.69;;;7.62;51.39
21828;BME280;11076;47.942;11.804;2023-02-17T03:41:13;95112.66;;;7.51;51.63
21828;BME280;11076;47.942;11.804;2023-02-17T03:46:16;95117.50;;;7.48;51.86
21828;BME280;11076;47.942;11.804;2023-02-17T03:51:21;95112.13;;;7.56;51.95
21828;BME280;11076;47.942;11.804;2023-02-17T03:56:23;95108.09;;;7.60;51.62
21828;BME280;11076;47.942;11.804;2023-02-17T04:01:26;95109.81;;;7.53;51.73
21828;BME280;11076;47.942;11.804;2023-02-17T04:06:28;95107.25;;;7.45;52.07
21828;BME280;11076;47.942;11.804;2023-02-17T04:11:31;95106.31;;;7.37;52.63
21828;BME280;11076;47.942;11.804;2023-02-17T04:16:33;95099.34;;;7.36;52.92
21828;BME280;11076;47.942;11.804;2023-02-17T04:21:35;95095.03;;;7.35;52.97
21828;BME280;11076;47.942;11.804;2023-02-17T04:26:38;95095.78;;;7.44;52.89
21828;BME280;11076;47.942;11.804;2023-02-17T04:31:40;95102.13;;;7.58;53.00
21828;BME280;11076;47.942;11.804;2023-02-17T04:36:42;95097.63;;;7.59;52.64
21828;BME280;11076;47.942;11.804;2023-02-17T04:41:45;95103.28;;;7.55;52.99
21828;BME280;11076;47.942;11.804;2023-02-17T04:46:47;95097.50;;;7.52;53.78
21828;BME280;11076;47.942;11.804;2023-02-17T04:51:50;95096.81;;;7.58;53.66
21828;BME280;11076;47.942;11.804;2023-02-17T04:56:52;95097.25;;;7.62;53.76
21828;BME280;11076;47.942;11.804;2023-02-17T05:01:54;95076.41;;;7.65;53.53
21828;BME280;11076;47.942;11.804;2023-02-17T05:06:57;95080.09;;;7.64;53.38
21828;BME280;11076;47.942;11.804;2023-02-17T05:11:59;95083.22;;;7.53;54.07
21828;BME280;11076;47.942;11.804;2023-02-17T05:17:01;95069.19;;;7.44;54.42
21828;BME280;11076;47.942;11.804;2023-02-17T05:22:04;95069.97;;;7.30;54.85
21828;BME280;11076;47.942;11.804;2023-02-17T05:27:06;95061.91;;;7.23;54.95
21828;BME280;11076;47.942;11.804;2023-02-17T05:32:09;95069.06;;;7.23;54.95
21828;BME280;11076;47.942;11.804;2023-02-17T05:37:11;95060.97;;;7.16;54.93
21828;BME280;11076;47.942;11.804;2023-02-17T05:42:13;95054.34;;;7.12;55.11
21828;BME280;11076;47.942;11.804;2023-02-17T05:47:16;95055.63;;;7.01;55.40
21828;BME280;11076;47.942;11.804;2023-02-17T05:52:18;95058.47;;;7.00;55.07
21828;BME280;11076;47.942;11.804;2023-02-17T05:57:20;95070.00;;;6.92;55.51
21828;BME280;11076;47.942;11.804;2023-02-17T06:02:23;95082.78;;;6.96;55.04
21828;BME280;11076;47.942;11.804;2023-02-17T06:07:25;95097.63;;;7.06;55.12
21828;BME280;11076;47.942;11.804;2023-02-17T06:12:27;95090.19;;;7.01;55.28
21828;BME280;11076;47.942;11.804;2023-02-17T06:17:30;95075.94;;;6.94;55.39
21828;BME280;11076;47.942;11.804;2023-02-17T06:22:32;95072.97;;;7.12;57.72
21828;BME280;11076;47.942;11.804;2023-02-17T06:27:35;95080.44;;;7.31;56.29
21828;BME280;11076;47.942;11.804;2023-02-17T06:32:37;95084.84;;;7.54;56.05
21828;BME280;11076;47.942;11.804;2023-02-17T06:37:39;95086.31;;;8.01;56.04
21828;BME280;11076;47.942;11.804;2023-02-17T06:42:42;95086.69;;;7.98;53.76
21828;BME280;11076;47.942;11.804;2023-02-17T06:47:44;95088.06;;;7.94;53.55
21828;BME280;11076;47.942;11.804;2023-02-17T06:52:46;95095.97;;;8.02;53.92
21828;BME280;11076;47.942;11.804;2023-02-17T06:57:49;95080.69;;;8.11;53.92
21828;BME280;11076;47.942;11.804;2023-02-17T07:02:51;95087.00;;;8.25;53.28
21828;BME280;11076;47.942;11.804;2023-02-17T07:07:56;95089.56;;;8.33;53.65
21828;BME280;11076;47.942;11.804;2023-02-17T07:12:59;95089.75;;;8.46;53.85
21828;BME280;11076;47.942;11.804;2023-02-17T07:18:02;95089.03;;;8.59;53.32
21828;BME280;11076;47.942;11.804;2023-02-17T07:23:04;95090.56;;;8.68;53.14
21828;BME280;11076;47.942;11.804;2023-02-17T07:28:07;95088.41;;;8.79;53.68
21828;BME280;11076;47.942;11.804;2023-02-17T07:33:09;95089.75;;;8.89;54.12
21828;BME280;11076;47.942;11.804;2023-02-17T07:38:12;95088.72;;;8.90;54.21
21828;BME280;11076;47.942;11.804;2023-02-17T07:43:14;95083.44;;;8.97;54.21
21828;BME280;11076;47.942;11.804;2023-02-17T07:48:19;95076.91;;;9.21;54.24
21828;BME280;11076;47.942;11.804;2023-02-17T07:53:21;95077.69;;;9.43;54.23
21828;BME280;11076;47.942;11.804;2023-02-17T07:58:23;95086.44;;;9.65;54.64
21828;BME280;11076;47.942;11.804;2023-02-17T08:03:26;95082.63;;;9.81;54.25
21828;BME280;11076;47.942;11.804;2023-02-17T08:08:28;95082.69;;;9.94;54.43
21828;BME280;11076;47.942;11.804;2023-02-17T08:13:49;95089.28;;;9.99;54.85
21828;BME280;11076;47.942;11.804;2023-02-17T08:18:53;95089.00;;;10.28;54.53
21828;BME280;11076;47.942;11.804;2023-02-17T08:23:56;95094.84;;;10.39;55.00
21828;BME280;11076;47.942;11.804;2023-02-17T08:28:59;95089.97;;;10.62;54.13
21828;BME280;11076;47.942;11.804;2023-02-17T08:34:06;95089.25;;;11.28;53.54
21828;BME280;11076;47.942;11.804;2023-02-17T08:39:14;95095.59;;;11.94;52.13
21828;BME280;11076;47.942;11.804;2023-02-17T08:44:18;95085.91;;;11.93;51.59
21828;BME280;11076;47.942;11.804;2023-02-17T08:49:24;95080.91;;;12.10;50.49
21828;BME280;11076;47.942;11.804;2023-02-17T08:54:27;95084.91;;;12.39;50.38
21828;BME280;11076;47.942;11.804;2023-02-17T08:59:30;95069.56;;;12.60;49.28
21828;BME280;11076;47.942;11.804;2023-02-17T09:04:32;95084.81;;;12.98;48.54
21828;BME280;11076;47.942;11.804;2023-02-17T09:09:35;95085.34;;;13.13;48.81
21828;BME280;11076;47.942;11.804;2023-02-17T09:14:37;95102.38;;;12.93;48.49
21828;BME280;11076;47.942;11.804;2023-02-17T09:19:39;95107.81;;;12.80;48.96
21828;BME280;11076;47.942;11.804;2023-02-17T09:24:43;95104.53;;;12.78;50.09
21828;BME280;11076;47.942;11.804;2023-02-17T09:29:45;95112.38;;;12.73;51.06
21828;BME280;11076;47.942;11.804;2023-02-17T09:34:47;95110.03;;;12.51;51.91
21828;BME280;11076;47.942;11.804;2023-02-17T09:39:54;95121.19;;;12.48;53.29
21828;BME280;11076;47.942;11.804;2023-02-17T09:45:02;95121.38;;;12.53;53.03
21828;BME280;11076;47.942;11.804;2023-02-17T09:50:13;95117.84;;;12.53;53.84
21828;BME280;11076;47.942;11.804;2023-02-17T09:55:24;95116.91;;;12.79;53.29
21828;BME280;11076;47.942;11.804;2023-02-17T10:00:36;95108.44;;;13.14;52.30
21828;BME280;11076;47.942;11.804;2023-02-17T10:05:45;95123.75;;;13.07;53.17
21828;BME280;11076;47.942;11.804;2023-02-17T10:10:59;95115.81;;;12.48;56.15
21828;BME280;11076;47.942;11.804;2023-02-17T10:16:08;95105.44;;;12.59;56.32
21828;BME280;11076;47.942;11.804;2023-02-17T10:21:26;95109.97;;;12.65;56.42
21828;BME280;11076;47.942;11.804;2023-02-17T10:37:03;95106.69;;;12.94;55.92
21828;BME280;11076;47.942;11.804;2023-02-17T10:42:30;95100.81;;;13.43;54.92
21828;BME280;11076;47.942;11.804;2023-02-17T10:47:34;95103.31;;;14.06;53.52
21828;BME280;11076;47.942;11.804;2023-02-17T10:52:39;95090.47;;;13.90;53.64
21828;BME280;11076;47.942;11.804;2023-02-17T10:57:43;95092.38;;;13.64;54.25
21828;BME280;11076;47.942;11.804;2023-02-17T11:02:47;95086.84;;;13.34;54.96
21828;BME280;11076;47.942;11.804;2023-02-17T11:08:04;95085.94;;;13.15;55.83
21828;BME280;11076;47.942;11.804;2023-02-17T11:13:29;95079.19;;;13.38;55.01
21828;BME280;11076;47.942;11.804;2023-02-17T11:18:36;95070.81;;;13.71;55.21
21828;BME280;11076;47.942;11.804;2023-02-17T11:23:50;95075.69;;;13.99;54.35
21828;BME280;11076;47.942;11.804;2023-02-17T11:28:53;95073.81;;;14.00;54.20
21828;BME280;11076;47.942;11.804;2023-02-17T11:33:56;95073.75;;;14.43;53.51
21828;BME280;11076;47.942;11.804;2023-02-17T11:38:58;95063.72;;;14.50;52.72
21828;BME280;11076;47.942;11.804;2023-02-17T11:44:02;95053.41;;;14.66;52.26
21828;BME280;11076;47.942;11.804;2023-02-17T12:10:21;95049.22;;;14.51;53.22
21828;BME280;11076;47.942;11.804;2023-02-17T12:15:38;95036.53;;;14.40;54.51
21828;BME280;11076;47.942;11.804;2023-02-17T12:20:49;95041.25;;;14.26;55.35
21828;BME280;11076;47.942;11.804;2023-02-17T12:26:15;95028.53;;;13.85;55.89
21828;BME280;11076;47.942;11.804;2023-02-17T12:31:23;95030.28;;;13.72;56.30
21828;BME280;11076;47.942;11.804;2023-02-17T12:36:33;95027.44;;;13.67;56.82
21828;BME280;11076;47.942;11.804;2023-02-17T12:41:47;95038.06;;;13.37;57.47
21828;BME280;11076;47.942;11.804;2023-02-17T12:46:54;95039.88;;;13.43;57.45
21828;BME280;11076;47.942;11.804;2023-02-17T12:57:12;95005.03;;;14.10;55.83
21828;BME280;11076;47.942;11.804;2023-02-17T13:02:23;95025.34;;;14.06;55.75
21828;BME280;11076;47.942;11.804;2023-02-17T13:07:43;95017.91;;;13.71;56.63
21828;BME280;11076;47.942;11.804;2023-02-17T13:13:01;95012.81;;;14.00;56.80
21828;BME280;11076;47.942;11.804;2023-02-17T13:18:27;95016.94;;;14.03;56.76
21828;BME280;11076;47.942;11.804;2023-02-17T13:23:36;95027.03;;;13.89;57.06
21828;BME280;11076;47.942;11.804;2023-02-17T13:28:40;95027.47;;;13.86;56.75
21828;BME280;11076;47.942;11.804;2023-02-17T13:33:48;95023.56;;;13.82;57.35
21828;BME280;11076;47.942;11.804;2023-02-17T13:44:39;95011.16;;;13.44;59.93
21828;BME280;11076;47.942;11.804;2023-02-17T13:49:53;95028.28;;;13.43;60.04
21828;BME280;11076;47.942;11.804;2023-02-17T13:55:04;95019.09;;;13.32;60.80
21828;BME280;11076;47.942;11.804;2023-02-17T14:05:46;95033.59;;;13.24;61.86
21828;BME280;11076;47.942;11.804;2023-02-17T14:10:49;95025.28;;;13.58;61.47
21828;BME280;11076;47.942;11.804;2023-02-17T14:15:53;95013.72;;;13.57;61.44
21828;BME280;11076;47.942;11.804;2023-02-17T14:21:06;95035.81;;;13.59;61.42
21828;BME280;11076;47.942;11.804;2023-02-17T14:26:12;95010.72;;;13.47;61.29
21828;BME280;11076;47.942;11.804;2023-02-17T14:31:18;95024.03;;;13.35;61.94
21828;BME280;11076;47.942;11.804;2023-02-17T14:36:33;95013.59;;;13.20;62.04
21828;BME280;11076;47.942;11.804;2023-02-17T14:41:36;95039.72;;;12.81;63.00
21828;BME280;11076;47.942;11.804;2023-02-17T14:46:38;95044.72;;;12.71;63.71
21828;BME280;11076;47.942;11.804;2023-02-17T14:51:41;95036.75;;;12.58;65.06
21828;BME280;11076;47.942;11.804;2023-02-17T14:56:59;95046.50;;;12.45;65.41
21828;BME280;11076;47.942;11.804;2023-02-17T15:02:13;95024.25;;;12.45;65.68
21828;BME280;11076;47.942;11.804;2023-02-17T15:07:17;95025.63;;;12.54;65.88
21828;BME280;11076;47.942;11.804;2023-02-17T15:12:20;95032.22;;;12.58;65.75
21828;BME280;11076;47.942;11.804;2023-02-17T15:17:23;95048.16;;;12.46;66.15
21828;BME280;11076;47.942;11.804;2023-02-17T15:22:25;95045.38;;;12.28;67.07
21828;BME280;11076;47.942;11.804;2023-02-17T15:27:27;95046.03;;;12.17;68.05
21828;BME280;11076;47.942;11.804;2023-02-17T15:32:30;95040.13;;;11.94;71.19
21828;BME280;11076;47.942;11.804;2023-02-17T15:37:32;95036.44;;;11.75;73.74
21828;BME280;11076;47.942;11.804;2023-02-17T15:42:35;95036.88;;;11.59;76.00
21828;BME280;11076;47.942;11.804;2023-02-17T15:47:37;95038.78;;;11.52;77.30
21828;BME280;11076;47.942;11.804;2023-02-17T15:52:40;95036.09;;;11.32;78.97
21828;BME280;11076;47.942;11.804;2023-02-17T15:57:45;95044.56;;;11.22;80.81
21828;BME280;11076;47.942;11.804;2023-02-17T16:02:49;95043.13;;;11.26;80.38
21828;BME280;11076;47.942;11.804;2023-02-17T16:07:51;95043.31;;;11.31;79.11
21828;BME280;11076;47.942;11.804;2023-02-17T16:12:56;95037.97;;;11.31;77.98
21828;BME280;11076;47.942;11.804;2023-02-17T16:17:59;95036.94;;;11.32;77.28
21828;BME280;11076;47.942;11.804;2023-02-17T16:23:01;95033.03;;;11.28;76.88
21828;BME280;11076;47.942;11.804;2023-02-17T16:28:04;95039.84;;;11.24;76.35
21828;BME280;11076;47.942;11.804;2023-02-17T16:33:10;95029.94;;;11.25;76.13
21828;BME280;11076;47.942;11.804;2023-02-17T16:38:16;95016.16;;;11.21;76.62
21828;BME280;11076;47.942;11.804;2023-02-17T16:43:23;95019.44;;;11.10;77.22
21828;BME280;11076;47.942;11.804;2023-02-17T16:48:30;95025.84;;;10.89;78.54
21828;BME280;11076;47.942;11.804;2023-02-17T16:53:34;95059.16;;;10.73;79.68
21828;BME280;11076;47.942;11.804;2023-02-17T16:58:36;95045.13;;;10.51;81.51
21828;BME280;11076;47.942;11.804;2023-02-17T17:03:40;95046.75;;;10.45;83.00
21828;BME280;11076;47.942;11.804;2023-02-17T17:08:43;95032.53;;;10.38;83.92
21828;BME280;11076;47.942;11.804;2023-02-17T17:13:45;95036.22;;;10.30;84.03
21828;BME280;11076;47.942;11.804;2023-02-17T17:18:48;95036.41;;;10.29;85.12
21828;BME280;11076;47.942;11.804;2023-02-17T17:23:50;95052.44;;;10.29;85.57
21828;BME280;11076;47.942;11.804;2023-02-17T17:28:53;95058.53;;;10.09;85.38
21828;BME280;11076;47.942;11.804;2023-02-17T17:33:56;95050.31;;;10.18;86.13
21828;BME280;11076;47.942;11.804;2023-02-17T17:39:00;95059.78;;;10.13;85.45
21828;BME280;11076;47.942;11.804;2023-02-17T17:44:03;95059.34;;;10.16;86.69
21828;BME280;11076;47.942;11.804;2023-02-17T17:49:07;95064.31;;;10.20;86.09
21828;BME280;11076;47.942;11.804;2023-02-17T17:54:11;95064.78;;;10.30;85.97
21828;BME280;11076;47.942;11.804;2023-02-17T17:59:13;95056.94;;;10.28;85.50
21828;BME280;11076;47.942;11.804;2023-02-17T18:04:16;95071.31;;;10.21;86.03
21828;BME280;11076;47.942;11.804;2023-02-17T18:09:22;95067.59;;;10.22;86.60
21828;BME280;11076;47.942;11.804;2023-02-17T18:14:35;95064.31;;;10.20;86.08
21828;BME280;11076;47.942;11.804;2023-02-17T18:19:39;95071.28;;;10.14;86.67
21828;BME280;11076;47.942;11.804;2023-02-17T18:24:41;95056.84;;;10.08;86.77
21828;BME280;11076;47.942;11.804;2023-02-17T18:29:44;95063.00;;;10.02;87.42
21828;BME280;11076;47.942;11.804;2023-02-17T18:34:47;95045.97;;;10.03;87.17
21828;BME280;11076;47.942;11.804;2023-02-17T18:39:49;95060.53;;;10.01;87.58
21828;BME280;11076;47.942;11.804;2023-02-17T18:44:51;95055.69;;;10.18;86.64
21828;BME280;11076;47.942;11.804;2023-02-17T18:49:54;95063.25;;;10.07;86.60
21828;BME280;11076;47.942;11.804;2023-02-17T18:54:57;95052.72;;;9.99;86.60
21828;BME280;11076;47.942;11.804;2023-02-17T19:00:01;95034.47;;;10.03;86.05
21828;BME280;11076;47.942;11.804;2023-02-17T19:05:04;95036.72;;;10.12;85.15
21828;BME280;11076;47.942;11.804;2023-02-17T19:10:07;95034.94;;;10.26;84.57
21828;BME280;11076;47.942;11.804;2023-02-17T19:15:10;95040.47;;;10.18;84.47
21828;BME280;11076;47.942;11.804;2023-02-17T19:20:14;95036.53;;;10.07;85.17
21828;BME280;11076;47.942;11.804;2023-02-17T19:25:19;95037.97;;;10.16;83.96
21828;BME280;11076;47.942;11.804;2023-02-17T19:30:21;95042.06;;;10.06;84.60
21828;BME280;11076;47.942;11.804;2023-02-17T19:35:24;95041.69;;;10.15;83.82
21828;BME280;11076;47.942;11.804;2023-02-17T19:40:26;95028.94;;;10.18;83.65
21828;BME280;11076;47.942;11.804;2023-02-17T19:45:29;95045.81;;;10.18;83.94
21828;BME280;11076;47.942;11.804;2023-02-17T19:50:31;95026.09;;;10.26;83.09
21828;BME280;11076;47.942;11.804;2023-02-17T19:55:34;95038.44;;;10.27;83.09
21828;BME280;11076;47.942;11.804;2023-02-17T20:00:36;95034.31;;;10.24;82.54
21828;BME280;11076;47.942;11.804;2023-02-17T20:05:40;95049.63;;;10.44;82.35
21828;BME280;11076;47.942;11.804;2023-02-17T20:10:42;95039.75;;;10.44;82.18
21828;BME280;11076;47.942;11.804;2023-02-17T20:15:45;95042.25;;;10.59;81.18
21828;BME280;11076;47.942;11.804;2023-02-17T20:20:52;95046.78;;;10.65;80.11
21828;BME280;11076;47.942;11.804;2023-02-17T20:25:55;95055.38;;;10.47;80.37
21828;BME280;11076;47.942;11.804;2023-02-17T20:30:59;95038.97;;;10.50;80.49
21828;BME280;11076;47.942;11.804;2023-02-17T20:36:02;95045.53;;;10.54;80.14
21828;BME280;11076;47.942;11.804;2023-02-17T20:41:06;95045.09;;;10.44;80.10
21828;BME280;11076;47.942;11.804;2023-02-17T20:46:15;95051.69;;;10.48;80.06
21828;BME280;11076;47.942;11.804;2023-02-17T20:51:20;95063.22;;;10.62;78.95
21828;BME280;11076;47.942;11.804;2023-02-17T20:56:23;95061.56;;;10.48;79.73
21828;BME280;11076;47.942;11.804;2023-02-17T21:01:25;95058.44;;;10.44;79.57
21828;BME280;11076;47.942;11.804;2023-02-17T21:06:32;95069.75;;;10.46;78.97
21828;BME280;11076;47.942;11.804;2023-02-17T21:11:34;95073.72;;;10.50;78.71
21828;BME280;11076;47.942;11.804;2023-02-17T21:16:37;95075.09;;;10.33;79.55
21828;BME280;11076;47.942;11.804;2023-02-17T21:21:40;95074.09;;;10.47;78.26
21828;BME280;11076;47.942;11.804;2023-02-17T21:26:42;95084.66;;;10.69;77.37
21828;BME280;11076;47.942;11.804;2023-02-17T21:31:44;95086.72;;;10.80;76.67
21828;BME280;11076;47.942;11.804;2023-02-17T21:36:47;95098.69;;;10.98;76.00
21828;BME280;11076;47.942;11.804;2023-02-17T21:41:49;95099.53;;;11.05;75.62
21828;BME280;11076;47.942;11.804;2023-02-17T21:46:52;95113.31;;;11.08;74.75
21828;BME280;11076;47.942;11.804;2023-02-17T21:51:54;95129.38;;;11.08;75.27
21828;BME280;11076;47.942;11.804;2023-02-17T21:56:57;95132.03;;;11.02;74.63
21828;BME280;11076;47.942;11.804;2023-02-17T22:01:59;95135.75;;;11.07;74.87
21828;BME280;11076;47.942;11.804;2023-02-17T22:07:02;95142.53;;;11.10;74.30
21828;BME280;11076;47.942;11.804;2023-02-17T22:12:04;95143.97;;;10.99;75.05
21828;BME280;11076;47.942;11.804;2023-02-17T22:17:07;95148.28;;;10.93;75.47
21828;BME280;11076;47.942;11.804;2023-02-17T22:22:09;95147.66;;;10.85;76.78
21828;BME280;11076;47.942;11.804;2023-02-17T22:27:11;95157.13;;;10.87;76.77
21828;BME280;11076;47.942;11.804;2023-02-17T22:32:14;95163.72;;;10.91;76.68
21828;BME280;11076;47.942;11.804;2023-02-17T22:37:16;95167.63;;;10.95;76.88
21828;BME280;11076;47.942;11.804;2023-02-17T22:42:19;95165.19;;;11.01;77.02
21828;BME280;11076;47.942;11.804;2023-02-17T22:47:22;95168.88;;;11.00;77.71
21828;BME280;11076;47.942;11.804;2023-02-17T22:52:24;95169.91;;;10.99;77.57
21828;BME280;11076;47.942;11.804;2023-02-17T22:57:27;95165.81;;;11.03;78.08
21828;BME280;11076;47.942;11.804;2023-02-17T23:02:33;95168.06;;;10.99;78.50
21828;BME280;11076;47.942;11.804;2023-02-17T23:07:35;95168.25;;;10.98;78.81
21828;BME280;11076;47.942;11.804;2023-02-17T23:12:37;95176.28;;;10.98;79.04
21828;BME280;11076;47.942;11.804;2023-02-17T23:17:40;95176.06;;;10.92;79.67
21828;BME280;11076;47.942;11.804;2023-02-17T23:22:57;95169.06;;;10.91;79.71
21828;BME280;11076;47.942;11.804;2023-02-17T23:28:00;95175.84;;;10.87;80.66
21828;BME280;11076;47.942;11.804;2023-02-17T23:33:02;95179.31;;;10.88;80.72
21828;BME280;11076;47.942;11.804;2023-02-17T23:38:05;95178.13;;;10.90;81.73
21828;BME280;11076;47.942;11.804;2023-02-17T23:43:08;95176.88;;;10.86;82.47
21828;BME280;11076;47.942;11.804;2023-02-17T23:48:11;95163.72;;;10.91;84.60
21828;BME280;11076;47.942;11.804;2023-02-17T23:53:14;95173.59;;;10.84;85.41
21828;BME280;11076;47.942;11.804;2023-02-17T23:58:16;95167.38;;;10.84;85.37
